Time;durP1;ratioP1;P1;durP2;ratioP2;P2;SDS_P1;SDS_P2;PMS_P1;PMS_P2;Temp;Humidity;BMP_temperature;BMP_pressure;BME280_temperature;BME280_humidity;BME280_pressure;Samples;Min_cycle;Max_cycle;Signal;HPM_P1;HPM_P2
2022/04/19 00:00:20;;;;;;;6.18;4.80;;;;;;;8.43;66.67;98405.44;4993062;28;103013;-65
2022/04/19 00:02:49;;;;;;;4.43;4.03;;;;;;;8.02;68.34;98400.31;4993415;28;103894;-65
2022/04/19 00:05:17;;;;;;;5.22;4.72;;;;;;;7.75;69.52;98399.47;4995390;28;103473;-65
2022/04/19 00:07:45;;;;;;;5.80;5.28;;;;;;;8.02;68.45;98404.72;4965758;28;104314;-66
2022/04/19 00:10:13;;;;;;;4.88;4.40;;;;;;;8.11;68.17;98404.13;4992547;28;102690;-65
2022/04/19 00:12:43;;;;;;;5.88;4.30;;;;;;;8.29;67.83;98400.25;4969204;28;104164;-66
2022/04/19 00:15:11;;;;;;;4.65;4.25;;;;;;;7.39;71.13;98402.72;4992707;28;103390;-65
2022/04/19 00:17:39;;;;;;;4.70;4.00;;;;;;;7.73;69.83;98405.78;4992180;28;103171;-67
2022/04/19 00:20:08;;;;;;;4.40;3.80;;;;;;;7.78;69.56;98390.53;4985776;28;103434;-64
2022/04/19 00:22:35;;;;;;;4.10;3.40;;;;;;;8.14;68.28;98391.56;4992087;28;102978;-64
2022/04/19 00:25:06;;;;;;;4.15;3.75;;;;;;;8.48;66.38;98384.03;4995118;28;103551;-64
2022/04/19 00:27:34;;;;;;;4.28;3.88;;;;;;;8.45;66.71;98377.19;4994634;28;103230;-67
2022/04/19 00:30:04;;;;;;;3.97;3.57;;;;;;;8.53;65.94;98384.59;4997894;28;102866;-67
2022/04/19 00:32:32;;;;;;;4.05;3.67;;;;;;;8.35;67.01;98378.78;4970323;28;102783;-69
2022/04/19 00:35:00;;;;;;;4.45;3.50;;;;;;;8.45;66.17;98377.19;4986876;28;103076;-67
2022/04/19 00:37:28;;;;;;;3.67;3.38;;;;;;;8.74;64.69;98383.94;4972485;28;103131;-67
2022/04/19 00:39:58;;;;;;;4.20;3.77;;;;;;;8.66;64.98;98381.00;4970899;28;103051;-68
2022/04/19 00:42:30;;;;;;;4.20;3.60;;;;;;;8.60;65.13;98370.88;4993285;28;102845;-67
2022/04/19 00:45:04;;;;;;;4.68;3.40;;;;;;;8.24;67.00;98372.53;4989884;28;103203;-64
2022/04/19 00:47:33;;;;;;;5.97;4.10;;;;;;;7.47;69.25;98374.13;4968040;28;104416;-64
2022/04/19 00:50:08;;;;;;;4.40;3.97;;;;;;;7.49;69.74;98371.44;4964275;28;102658;-64
2022/04/19 00:52:39;;;;;;;4.30;3.83;;;;;;;7.90;68.26;98368.69;4994892;28;103852;-64
2022/04/19 00:55:09;;;;;;;3.20;2.90;;;;;;;8.39;65.97;98361.84;4968620;28;103316;-68
2022/04/19 00:57:43;;;;;;;3.38;3.08;;;;;;;8.72;64.18;98362.16;4970770;28;103297;-68
2022/04/19 01:00:17;;;;;;;5.13;4.10;;;;;;;8.01;67.70;98360.94;4971517;28;103806;-67
2022/04/19 01:03:02;;;;;;;4.22;3.83;;;;;;;7.91;67.69;98352.84;4969122;28;105462;-64
2022/04/19 01:05:35;;;;;;;3.10;2.80;;;;;;;8.40;66.20;98355.63;4993529;28;104024;-67
2022/04/19 01:08:06;;;;;;;3.80;3.13;;;;;;;8.63;64.14;98349.63;4969072;28;103273;-67
2022/04/19 01:10:37;;;;;;;5.87;3.83;;;;;;;8.51;64.73;98347.81;4978550;28;102824;-67
2022/04/19 01:13:19;;;;;;;4.20;3.80;;;;;;;7.99;67.48;98357.56;4977618;28;104442;-67
2022/04/19 01:15:58;;;;;;;3.83;3.33;;;;;;;8.21;65.91;98341.16;4990681;28;104253;-67
2022/04/19 01:18:27;;;;;;;5.82;3.90;;;;;;;8.00;66.57;98343.47;4970665;28;104051;-68
2022/04/19 01:21:01;;;;;;;4.80;3.80;;;;;;;8.27;65.65;98339.00;4973390;28;102920;-68
2022/04/19 01:23:31;;;;;;;4.97;4.00;;;;;;;7.91;67.11;98337.03;4971490;28;103553;-68
2022/04/19 01:26:00;;;;;;;3.80;3.50;;;;;;;7.89;67.51;98340.69;4971254;28;103569;-68
2022/04/19 01:28:30;;;;;;;4.60;4.20;;;;;;;7.67;68.79;98335.19;4977466;28;105543;-68
2022/04/19 01:30:59;;;;;;;4.43;4.03;;;;;;;7.96;67.24;98336.72;4973438;28;102744;-66
2022/04/19 01:33:35;;;;;;;4.40;3.85;;;;;;;8.08;66.63;98333.28;4974527;28;103833;-66
2022/04/19 01:36:09;;;;;;;5.07;4.00;;;;;;;7.51;68.90;98330.97;4990825;28;105826;-66
2022/04/19 01:38:43;;;;;;;5.25;4.03;;;;;;;7.54;69.28;98329.91;4986701;28;103279;-65
2022/04/19 01:41:12;;;;;;;6.13;4.50;;;;;;;7.56;69.14;98328.88;5005375;28;103200;-65
2022/04/19 01:43:57;;;;;;;4.72;4.10;;;;;;;7.83;67.31;98331.44;4989546;28;102823;-65
2022/04/19 01:46:26;;;;;;;5.18;4.32;;;;;;;7.93;66.83;98332.53;4985899;28;104167;-65
2022/04/19 01:48:55;;;;;;;4.10;3.67;;;;;;;7.75;68.15;98327.66;4999331;28;104338;-64
2022/04/19 01:51:24;;;;;;;4.78;4.22;;;;;;;7.62;68.46;98316.25;4983666;28;103282;-65
2022/04/19 01:53:54;;;;;;;4.97;3.92;;;;;;;7.35;69.62;98317.13;4999182;28;103852;-65
2022/04/19 01:56:23;;;;;;;4.80;3.97;;;;;;;7.48;69.10;98323.28;4992626;28;103421;-65
2022/04/19 01:58:53;;;;;;;5.07;3.80;;;;;;;7.55;68.61;98315.84;5003392;28;103851;-68
2022/04/19 02:01:34;;;;;;;4.57;4.18;;;;;;;7.53;68.98;98313.28;5006110;27;103048;-68
2022/04/19 02:04:02;;;;;;;5.13;4.27;;;;;;;7.32;68.76;98321.75;4990334;28;104163;-68
2022/04/19 02:06:32;;;;;;;6.03;4.30;;;;;;;7.30;69.95;98311.31;4995313;28;106520;-68
2022/04/19 02:09:03;;;;;;;4.78;4.18;;;;;;;7.57;68.62;98317.41;4991897;28;104343;-68
2022/04/19 02:11:32;;;;;;;5.72;4.30;;;;;;;7.71;68.27;98331.41;4997378;28;103029;-65
2022/04/19 02:14:20;;;;;;;6.13;4.25;;;;;;;7.66;67.38;98312.50;5018671;28;103324;-68
2022/04/19 02:16:48;;;;;;;4.00;3.60;;;;;;;7.77;67.37;98315.25;5000350;28;104131;-68
2022/04/19 02:19:17;;;;;;;5.10;3.92;;;;;;;7.49;68.52;98322.31;4996316;28;105634;-65
2022/04/19 02:21:49;;;;;;;4.43;4.03;;;;;;;7.46;68.93;98317.28;5009904;28;102905;-66
2022/04/19 02:24:21;;;;;;;5.13;4.27;;;;;;;7.52;68.60;98319.47;4989579;28;103939;-68
2022/04/19 02:26:49;;;;;;;4.37;3.97;;;;;;;7.52;68.15;98321.28;4996224;28;105312;-68
2022/04/19 02:29:19;;;;;;;4.68;3.95;;;;;;;7.65;67.25;98321.31;4992190;28;104538;-68
2022/04/19 02:31:50;;;;;;;4.82;4.32;;;;;;;6.21;73.90;98323.50;4992677;28;102867;-68
2022/04/19 02:34:18;;;;;;;4.50;3.63;;;;;;;6.47;72.81;98324.53;5001227;28;102989;-68
2022/04/19 02:36:48;;;;;;;3.53;3.23;;;;;;;7.03;71.01;98328.88;4995541;28;103704;-68
2022/04/19 02:39:16;;;;;;;3.67;3.33;;;;;;;5.96;74.38;98319.81;4993584;28;106045;-65
2022/04/19 02:41:46;;;;;;;5.00;3.80;;;;;;;5.88;75.26;98315.03;4996203;28;102745;-67
2022/04/19 02:44:17;;;;;;;4.55;3.65;;;;;;;6.55;73.35;98316.19;5000764;28;102821;-67
2022/04/19 02:46:58;;;;;;;3.90;3.55;;;;;;;6.93;71.22;98312.03;4996828;28;104408;-66
2022/04/19 02:49:29;;;;;;;2.95;2.65;;;;;;;7.21;69.78;98308.47;4995395;28;103392;-69
2022/04/19 02:51:57;;;;;;;3.42;3.08;;;;;;;7.28;69.00;98313.22;4995291;28;102691;-66
2022/04/19 02:54:25;;;;;;;4.10;3.20;;;;;;;7.26;68.24;98304.59;5009924;28;102768;-69
2022/04/19 02:56:55;;;;;;;5.30;3.60;;;;;;;6.53;72.12;98313.66;4999469;28;104528;-69
2022/04/19 02:59:25;;;;;;;5.30;4.18;;;;;;;6.22;73.67;98309.47;5008313;28;103510;-69
2022/04/19 03:01:53;;;;;;;4.38;3.72;;;;;;;6.59;71.47;98308.03;4989940;28;103149;-66
2022/04/19 03:04:21;;;;;;;4.40;3.78;;;;;;;6.91;69.59;98303.38;4990572;28;103723;-66
2022/04/19 03:06:52;;;;;;;4.50;3.78;;;;;;;6.62;71.20;98299.13;5009113;27;106119;-67
2022/04/19 03:09:20;;;;;;;4.97;3.80;;;;;;;5.95;75.07;98303.25;4993073;28;104181;-66
2022/04/19 03:11:48;;;;;;;4.65;3.85;;;;;;;5.95;75.24;98303.25;5014862;27;102742;-66
2022/04/19 03:14:19;;;;;;;3.88;3.42;;;;;;;6.48;72.79;98304.41;5009278;28;102763;-69
2022/04/19 03:16:47;;;;;;;4.10;3.57;;;;;;;6.59;72.36;98301.94;4991428;28;104230;-69
2022/04/19 03:19:16;;;;;;;4.37;3.70;;;;;;;6.25;73.10;98297.94;4988099;28;103051;-69
2022/04/19 03:21:44;;;;;;;4.03;3.15;;;;;;;6.56;72.51;98291.63;5004930;28;103047;-66
2022/04/19 03:29:47;;;;;;;4.33;3.47;;;;;;;6.44;72.49;98288.00;4991379;28;103221;-65
2022/04/19 03:32:19;;;;;;;4.28;3.50;;;;;;;6.36;72.81;98285.00;4992109;28;103100;-66
2022/04/19 03:34:49;;;;;;;4.93;3.65;;;;;;;6.41;71.86;98285.56;5008243;28;104067;-68
2022/04/19 03:37:19;;;;;;;4.90;3.45;;;;;;;6.52;72.35;98290.97;4992852;28;105040;-66
2022/04/19 03:39:47;;;;;;;3.80;3.35;;;;;;;6.33;71.92;98291.28;5010286;27;103665;-66
2022/04/19 03:42:16;;;;;;;4.07;3.67;;;;;;;5.48;76.38;98295.53;5008052;27;102988;-66
2022/04/19 03:44:44;;;;;;;4.88;4.20;;;;;;;5.08;78.67;98302.19;4993839;28;104941;-68
2022/04/19 03:47:15;;;;;;;4.57;4.00;;;;;;;5.68;76.93;98305.69;4990855;28;104488;-68
2022/04/19 03:49:43;;;;;;;4.72;4.13;;;;;;;5.39;76.88;98303.09;5009430;28;103373;-69
2022/04/19 03:52:11;;;;;;;6.00;4.65;;;;;;;5.09;79.71;98309.13;5008929;27;104841;-66
2022/04/19 03:54:43;;;;;;;5.88;4.68;;;;;;;4.78;80.51;98309.16;4987222;28;103237;-66
2022/04/19 03:57:13;;;;;;;6.15;4.50;;;;;;;5.07;79.75;98307.53;5008401;28;103631;-65
2022/04/19 03:59:42;;;;;;;4.50;4.10;;;;;;;5.64;77.76;98308.59;4990769;28;105902;-65
2022/04/19 04:02:20;;;;;;;4.07;3.55;;;;;;;5.95;76.33;98308.47;4991791;28;103036;-64
2022/04/19 04:04:48;;;;;;;4.40;4.00;;;;;;;5.78;75.29;98319.13;4991385;28;104206;-65
2022/04/19 04:07:16;;;;;;;5.22;4.28;;;;;;;5.61;77.25;98303.53;4990121;28;106332;-65
2022/04/19 04:09:45;;;;;;;4.15;3.60;;;;;;;5.78;77.23;98311.25;5008960;28;106037;-65
2022/04/19 04:12:13;;;;;;;3.05;2.78;;;;;;;6.31;74.24;98308.91;4994291;28;102746;-66
2022/04/19 04:14:43;;;;;;;3.60;3.30;;;;;;;6.52;72.34;98305.88;5008325;28;104334;-68
2022/04/19 04:17:12;;;;;;;5.22;3.85;;;;;;;6.24;72.69;98304.97;4991988;28;104261;-69
2022/04/19 04:19:43;;;;;;;5.43;3.97;;;;;;;6.12;72.74;98305.69;5008883;27;103965;-66
2022/04/19 04:22:16;;;;;;;4.43;3.80;;;;;;;6.17;72.87;98311.53;4994163;28;102925;-68
2022/04/19 04:24:44;;;;;;;4.23;3.83;;;;;;;6.37;72.01;98313.75;5011150;27;102895;-66
2022/04/19 04:27:13;;;;;;;4.47;4.07;;;;;;;6.09;72.73;98307.69;4987139;28;105317;-66
2022/04/19 04:29:41;;;;;;;5.78;4.60;;;;;;;5.75;74.73;98311.44;4984584;28;104688;-69
2022/04/19 04:32:12;;;;;;;5.83;4.20;;;;;;;6.05;74.39;98317.50;5001917;28;102945;-68
2022/04/19 04:34:42;;;;;;;4.10;3.70;;;;;;;6.16;73.22;98309.84;4992738;28;104273;-68
2022/04/19 04:37:11;;;;;;;5.22;3.65;;;;;;;6.36;72.44;98309.47;5012398;28;103890;-68
2022/04/19 04:39:47;;;;;;;4.97;4.20;;;;;;;6.09;73.39;98311.13;5007140;28;103245;-68
2022/04/19 04:42:27;;;;;;;4.35;3.95;;;;;;;6.18;73.86;98313.19;5010002;28;102831;-69
2022/04/19 04:45:06;;;;;;;5.55;4.50;;;;;;;6.15;74.53;98315.16;4992805;28;104202;-69
2022/04/19 04:50:24;;;;;;;6.07;5.00;;;;;;;5.69;77.39;98315.25;5006348;28;104163;-69
2022/04/19 04:52:53;;;;;;;4.35;3.95;;;;;;;6.25;75.84;98311.91;4993370;28;103040;-68
2022/04/19 04:55:21;;;;;;;5.07;4.05;;;;;;;6.50;73.55;98303.38;5001618;28;103299;-67
2022/04/19 04:57:49;;;;;;;4.40;4.00;;;;;;;6.72;72.71;98310.72;4983920;28;105125;-67
2022/04/19 05:00:20;;;;;;;4.65;4.10;;;;;;;6.52;73.20;98305.88;4976258;28;103209;-67
2022/04/19 05:02:50;;;;;;;5.38;4.40;;;;;;;6.65;72.76;98312.06;4989253;28;102934;-69
2022/04/19 05:05:19;;;;;;;5.53;4.83;;;;;;;6.46;73.25;98312.34;4987104;28;103895;-68
2022/04/19 05:07:51;;;;;;;5.72;4.40;;;;;;;6.25;76.35;98304.03;4983809;28;104872;-68
2022/04/19 05:10:19;;;;;;;6.97;5.10;;;;;;;6.35;75.93;98304.28;4967167;28;102960;-68
2022/04/19 05:12:51;;;;;;;9.98;5.35;;;;;;;6.10;77.24;98312.81;4994373;28;103130;-69
2022/04/19 05:15:25;;;;;;;7.15;5.50;;;;;;;6.11;77.06;98311.03;4992157;28;103220;-68
2022/04/19 05:17:54;;;;;;;5.70;5.13;;;;;;;6.34;76.16;98311.31;4988052;28;105029;-68
2022/04/19 05:20:22;;;;;;;8.88;5.40;;;;;;;6.27;76.87;98309.16;4999964;28;103255;-68
2022/04/19 05:22:53;;;;;;;7.38;5.50;;;;;;;5.86;78.87;98314.28;4982761;28;103184;-68
2022/04/19 05:25:21;;;;;;;7.55;5.15;;;;;;;5.88;78.64;98312.41;4979810;28;102676;-68
2022/04/19 05:27:49;;;;;;;5.85;5.25;;;;;;;6.03;78.10;98308.91;5000888;28;103913;-70
2022/04/19 05:30:17;;;;;;;5.30;4.80;;;;;;;6.28;78.28;98314.34;4990179;28;104413;-68
2022/04/19 05:32:46;;;;;;;6.72;5.35;;;;;;;6.37;77.31;98326.88;5009479;28;102665;-68
2022/04/19 05:35:14;;;;;;;8.18;5.95;;;;;;;6.08;77.69;98322.56;4989187;28;103732;-68
2022/04/19 05:37:42;;;;;;;7.55;6.15;;;;;;;5.64;79.54;98324.31;5010457;28;103129;-64
2022/04/19 05:40:11;;;;;;;9.63;5.50;;;;;;;5.85;79.53;98325.72;5003645;28;103224;-65
2022/04/19 05:42:40;;;;;;;7.85;5.85;;;;;;;6.15;78.23;98333.50;5008019;28;103070;-65
2022/04/19 05:45:09;;;;;;;6.20;4.88;;;;;;;6.89;75.82;98319.25;4992995;28;104457;-65
2022/04/19 05:47:37;;;;;;;5.07;4.57;;;;;;;7.35;73.73;98319.78;4995993;28;104565;-65
2022/04/19 05:50:07;;;;;;;5.45;4.40;;;;;;;7.51;72.68;98319.59;5010259;28;103809;-65
2022/04/19 05:52:35;;;;;;;6.38;5.13;;;;;;;7.68;71.83;98321.94;4992476;28;103115;-64
2022/04/19 05:55:08;;;;;;;5.00;3.97;;;;;;;8.02;70.32;98321.38;4992135;28;102792;-65
2022/04/19 05:57:38;;;;;;;5.97;5.30;;;;;;;7.32;72.72;98325.22;4993503;28;104535;-64
2022/04/19 06:00:09;;;;;;;4.43;4.03;;;;;;;8.03;71.12;98327.47;5001664;28;103181;-66
2022/04/19 06:05:37;;;;;;;5.00;4.30;;;;;;;8.18;70.41;98326.44;5002893;28;104100;-66
2022/04/19 06:08:05;;;;;;;6.78;4.95;;;;;;;8.35;68.87;98320.88;4991375;28;104151;-66
2022/04/19 06:10:37;;;;;;;6.57;4.80;;;;;;;8.59;67.73;98319.16;4988834;28;103455;-66
2022/04/19 06:13:08;;;;;;;5.78;4.28;;;;;;;8.90;67.02;98315.19;5009596;28;102657;-65
2022/04/19 06:15:38;;;;;;;5.40;4.70;;;;;;;9.23;66.15;98322.50;4991061;28;102726;-65
2022/04/19 06:18:08;;;;;;;6.30;5.10;;;;;;;9.08;65.83;98318.31;5001119;28;103321;-66
2022/04/19 06:20:54;;;;;;;4.57;4.00;;;;;;;9.52;64.27;98322.97;4988567;28;103649;-63
2022/04/19 06:23:25;;;;;;;8.13;4.72;;;;;;;9.47;63.47;98318.03;4992063;28;102984;-65
2022/04/19 06:25:53;;;;;;;5.33;4.40;;;;;;;9.89;62.78;98322.75;5007790;28;103952;-65
2022/04/19 06:28:25;;;;;;;5.22;4.47;;;;;;;9.96;61.59;98317.03;4984989;28;105291;-66
2022/04/19 06:31:16;;;;;;;6.38;4.45;;;;;;;10.11;60.86;98316.69;4976259;28;103174;-66
2022/04/19 06:33:58;;;;;;;6.25;4.80;;;;;;;10.15;62.62;98319.97;4990794;28;102810;-65
2022/04/19 06:36:36;;;;;;;6.28;4.75;;;;;;;10.44;61.09;98310.66;4966791;28;102792;-65
2022/04/19 06:39:05;;;;;;;4.80;4.22;;;;;;;10.41;60.92;98310.91;4985566;28;103351;-66
2022/04/19 06:41:33;;;;;;;4.72;3.95;;;;;;;10.52;60.63;98308.25;4962284;28;105785;-66
2022/04/19 06:44:02;;;;;;;5.30;4.80;;;;;;;9.73;61.33;98316.97;4970359;28;102952;-65
2022/04/19 06:46:31;;;;;;;6.88;4.90;;;;;;;10.25;60.53;98311.22;4967939;28;103974;-66
2022/04/19 06:49:05;;;;;;;5.72;4.25;;;;;;;10.83;59.69;98304.91;4971973;28;104569;-65
2022/04/19 06:51:33;;;;;;;6.20;4.57;;;;;;;10.85;59.24;98305.59;4967347;28;103438;-65
2022/04/19 06:54:07;;;;;;;6.97;4.82;;;;;;;10.60;58.05;98308.50;4989597;28;103264;-65
2022/04/19 06:56:40;;;;;;;5.35;4.18;;;;;;;10.85;59.19;98307.41;4967656;28;103674;-65
2022/04/19 06:59:13;;;;;;;6.60;4.60;;;;;;;11.14;57.92;98307.72;4982508;28;103055;-66
2022/04/19 07:01:43;;;;;;;5.80;4.40;;;;;;;11.71;56.68;98305.63;4958027;28;105845;-66
2022/04/19 07:04:41;;;;;;;6.18;5.13;;;;;;;11.37;56.52;98304.88;4982767;28;102717;-66
2022/04/19 07:07:12;;;;;;;4.93;4.00;;;;;;;11.75;56.18;98301.75;4981315;28;102722;-64
2022/04/19 07:09:43;;;;;;;4.30;3.90;;;;;;;12.43;55.24;98303.03;4973902;28;103306;-64
2022/04/19 07:12:13;;;;;;;6.43;5.05;;;;;;;12.09;55.65;98300.63;4980051;28;103206;-66
2022/04/19 07:14:52;;;;;;;5.60;4.97;;;;;;;12.42;55.90;98298.69;4972858;28;103845;-65
2022/04/19 07:17:43;;;;;;;5.77;4.50;;;;;;;12.87;54.01;98299.16;4964847;28;104181;-65
2022/04/19 07:28:34;;;;;;;6.85;4.95;;;;;;;12.80;52.45;98299.69;4978390;28;103136;-65
2022/04/19 07:31:05;;;;;;;6.53;5.10;;;;;;;13.16;52.93;98305.44;4976456;28;104354;-65
2022/04/19 07:33:38;;;;;;;6.23;4.93;;;;;;;13.63;51.94;98288.72;4991092;28;103197;-65
2022/04/19 07:36:06;;;;;;;6.38;4.78;;;;;;;13.85;51.97;98287.59;4979760;28;102992;-65
2022/04/19 07:38:34;;;;;;;5.90;4.57;;;;;;;14.17;51.77;98304.06;4998307;28;102781;-65
2022/04/19 07:41:20;;;;;;;4.75;4.20;;;;;;;14.66;50.45;98291.47;4984187;28;104362;-65
2022/04/19 07:43:53;;;;;;;7.43;4.80;;;;;;;14.87;49.68;98287.63;4984451;28;103280;-65
2022/04/19 07:46:23;;;;;;;8.37;5.60;;;;;;;15.12;47.37;98286.09;4980175;28;102677;-66
2022/04/19 07:48:53;;;;;;;5.53;4.37;;;;;;;15.61;47.93;98284.78;4984069;28;102745;-65
2022/04/19 07:51:22;;;;;;;5.87;4.23;;;;;;;16.02;47.48;98280.66;4981334;28;105311;-65
2022/04/19 07:53:50;;;;;;;5.90;4.68;;;;;;;15.93;45.82;98278.91;4994487;28;104102;-65
2022/04/19 07:56:20;;;;;;;7.05;5.07;;;;;;;16.11;45.02;98274.41;4997426;28;102768;-65
2022/04/19 07:58:49;;;;;;;6.93;5.33;;;;;;;15.04;47.53;98286.81;5001900;28;102878;-66
2022/04/19 08:01:18;;;;;;;6.32;5.22;;;;;;;14.50;48.18;98284.97;4982354;28;104333;-65
2022/04/19 08:03:49;;;;;;;5.50;5.00;;;;;;;15.21;48.22;98273.72;4998385;28;103533;-65
2022/04/19 08:06:17;;;;;;;6.45;5.15;;;;;;;15.33;47.89;98280.47;4982235;28;103100;-65
2022/04/19 08:08:45;;;;;;;8.43;5.60;;;;;;;14.67;47.60;98285.19;4981662;28;102816;-65
2022/04/19 08:11:13;;;;;;;6.25;5.38;;;;;;;14.71;47.88;98286.59;4998132;28;103197;-65
2022/04/19 08:13:45;;;;;;;4.93;4.20;;;;;;;15.57;47.20;98278.13;4981060;28;103195;-65
2022/04/19 08:16:13;;;;;;;5.95;4.90;;;;;;;16.59;47.14;98280.06;4999249;28;102663;-65
2022/04/19 08:18:45;;;;;;;6.88;5.03;;;;;;;15.90;44.89;98272.06;4983055;28;104141;-65
2022/04/19 08:21:17;;;;;;;8.90;5.13;;;;;;;15.40;45.05;98274.44;4981215;28;104312;-65
2022/04/19 08:23:46;;;;;;;6.70;4.73;;;;;;;17.17;45.17;98271.31;4981840;28;104300;-64
2022/04/19 08:26:18;;;;;;;6.25;4.75;;;;;;;17.54;43.03;98269.09;4998893;28;102705;-64
2022/04/19 08:28:46;;;;;;;7.72;4.97;;;;;;;18.62;41.46;98266.03;4981098;28;102671;-65
2022/04/19 08:31:15;;;;;;;5.70;5.00;;;;;;;17.70;42.47;98266.44;4982373;28;103260;-65
2022/04/19 08:33:43;;;;;;;6.47;5.32;;;;;;;18.52;40.35;98268.09;4982183;28;103267;-65
2022/04/19 08:36:18;;;;;;;5.63;4.95;;;;;;;18.24;42.90;98261.44;4983635;28;102728;-65
2022/04/19 08:38:47;;;;;;;5.28;4.75;;;;;;;18.96;40.23;98261.25;4984205;28;102731;-64
2022/04/19 08:41:19;;;;;;;6.38;5.13;;;;;;;18.10;39.92;98270.13;4986459;28;104099;-64
2022/04/19 08:43:50;;;;;;;5.63;4.90;;;;;;;17.43;42.08;98258.72;5000457;28;103218;-65
2022/04/19 08:46:19;;;;;;;5.57;4.90;;;;;;;18.83;44.50;98255.63;4984399;28;103040;-65
2022/04/19 08:48:49;;;;;;;7.57;5.25;;;;;;;18.68;42.00;98256.50;5002266;28;102773;-65
2022/04/19 08:51:21;;;;;;;6.85;5.45;;;;;;;19.08;41.05;98245.63;4997190;28;103707;-69
2022/04/19 08:59:29;;;;;;;6.63;4.73;;;;;;;20.45;40.07;98239.25;5001029;28;104175;-70
2022/04/19 09:01:57;;;;;;;5.90;5.23;;;;;;;19.67;38.82;98241.44;5000971;28;104052;-69
2022/04/19 09:04:25;;;;;;;6.43;5.30;;;;;;;18.72;39.40;98245.28;4998368;28;103476;-70
2022/04/19 09:06:59;;;;;;;5.90;5.15;;;;;;;19.23;39.41;98240.38;4997614;28;102693;-70
2022/04/19 09:09:34;;;;;;;6.60;5.30;;;;;;;19.61;38.68;98234.13;4998437;28;102953;-69
2022/04/19 09:12:08;;;;;;;7.45;4.95;;;;;;;20.66;41.31;98241.22;4980203;28;102928;-64
2022/04/19 09:14:37;;;;;;;6.97;4.72;;;;;;;19.77;37.29;98239.34;4998672;28;103295;-64
2022/04/19 09:17:07;;;;;;;6.35;4.50;;;;;;;19.08;38.39;98233.09;4999815;28;102646;-65
2022/04/19 09:19:37;;;;;;;6.32;4.38;;;;;;;18.81;38.75;98224.66;4999483;28;103863;-65
2022/04/19 09:22:09;;;;;;;5.38;3.90;;;;;;;19.78;37.89;98229.47;4984832;28;103685;-64
2022/04/19 09:24:38;;;;;;;6.40;3.40;;;;;;;19.56;34.74;98226.59;4991764;28;103200;-65
2022/04/19 09:27:06;;;;;;;3.15;2.50;;;;;;;19.02;34.52;98238.28;4991356;28;102655;-64
2022/04/19 09:29:34;;;;;;;3.25;2.58;;;;;;;19.60;33.53;98221.72;4992800;28;102762;-65
2022/04/19 09:32:12;;;;;;;4.72;3.15;;;;;;;20.46;36.38;98224.81;4981769;28;103308;-65
2022/04/19 09:34:49;;;;;;;5.88;3.40;;;;;;;21.48;34.92;98217.63;4993195;28;103776;-65
2022/04/19 09:37:21;;;;;;;3.55;2.70;;;;;;;21.06;32.69;98211.16;4990083;28;104660;-64
2022/04/19 09:39:54;;;;;;;4.22;3.45;;;;;;;19.82;33.61;98212.81;5004097;28;102736;-64
2022/04/19 09:42:27;;;;;;;3.13;2.83;;;;;;;21.17;32.65;98213.38;4998283;28;103767;-65
2022/04/19 09:44:57;;;;;;;5.20;3.28;;;;;;;20.00;33.27;98212.50;4994548;28;103201;-65
2022/04/19 09:47:26;;;;;;;4.80;3.58;;;;;;;20.45;33.62;98211.59;4999340;28;102967;-65
2022/04/19 09:49:56;;;;;;;3.92;3.40;;;;;;;20.38;33.75;98210.66;4994881;28;102815;-65
2022/04/19 09:52:43;;;;;;;5.55;3.20;;;;;;;19.76;32.95;98208.19;4994607;28;103223;-65
2022/04/19 09:55:18;;;;;;;4.15;3.75;;;;;;;19.38;32.06;98206.44;4994764;28;103339;-65
2022/04/19 09:57:49;;;;;;;3.92;3.53;;;;;;;19.54;33.65;98206.34;4997810;28;102983;-65
2022/04/19 10:00:19;;;;;;;4.27;3.87;;;;;;;19.59;32.25;98198.63;4996974;28;103694;-65
2022/04/19 10:08:22;;;;;;;3.50;3.13;;;;;;;20.60;33.44;98189.09;4987895;28;102889;-70
2022/04/19 10:10:51;;;;;;;3.93;3.63;;;;;;;18.64;31.29;98201.69;4980781;28;103689;-69
2022/04/19 10:13:23;;;;;;;4.00;3.63;;;;;;;20.35;33.09;98194.94;4977252;28;103269;-70
2022/04/19 10:15:53;;;;;;;4.10;3.70;;;;;;;19.57;34.61;98196.13;4986584;28;103224;-70
2022/04/19 10:18:21;;;;;;;4.15;3.53;;;;;;;19.55;33.72;98197.31;4986602;28;102745;-69
2022/04/19 10:20:58;;;;;;;3.90;3.58;;;;;;;20.83;32.93;98188.97;4974988;28;102857;-70
2022/04/19 10:23:35;;;;;;;3.42;3.13;;;;;;;20.31;32.28;98189.09;4991360;28;103142;-69
2022/04/19 10:26:22;;;;;;;4.07;3.40;;;;;;;20.12;33.37;98187.78;4987785;28;103359;-70
2022/04/19 10:28:52;;;;;;;3.90;3.53;;;;;;;19.42;33.77;98191.72;4990036;28;102992;-70
2022/04/19 10:31:30;;;;;;;4.23;3.70;;;;;;;20.55;34.67;98185.28;4993744;28;104309;-70
2022/04/19 10:34:02;;;;;;;5.05;3.90;;;;;;;21.06;32.95;98181.63;4995576;28;104035;-69
2022/04/19 10:36:38;;;;;;;4.75;4.05;;;;;;;18.93;33.56;98183.97;4978741;28;103249;-70
2022/04/19 10:39:26;;;;;;;6.00;4.30;;;;;;;19.34;33.04;98189.09;4984840;28;102804;-69
2022/04/19 10:41:56;;;;;;;4.60;4.20;;;;;;;19.77;31.91;98184.91;4986085;28;104054;-64
2022/04/19 10:44:31;;;;;;;4.30;3.90;;;;;;;21.14;33.00;98173.47;4990976;28;103725;-69
2022/04/19 10:47:15;;;;;;;3.83;3.42;;;;;;;22.56;31.40;98172.41;4993091;28;103228;-70
2022/04/19 10:50:04;;;;;;;6.13;4.45;;;;;;;21.01;31.11;98172.47;4971840;28;102898;-70
2022/04/19 10:52:49;;;;;;;4.15;3.75;;;;;;;21.72;31.99;98168.88;4991147;28;103923;-70
2022/04/19 10:55:30;;;;;;;4.65;4.25;;;;;;;19.34;32.15;98162.31;4991619;28;103553;-64
2022/04/19 10:58:16;;;;;;;4.20;3.80;;;;;;;20.10;32.51;98176.38;4992358;28;103731;-70
2022/04/19 11:00:47;;;;;;;4.70;4.30;;;;;;;21.42;32.50;98162.00;4975171;28;102899;-70
2022/04/19 11:03:55;;;;;;;4.50;4.10;;;;;;;20.28;30.69;98164.50;4992997;28;102772;-64
2022/04/19 11:06:35;;;;;;;4.57;4.10;;;;;;;20.74;32.48;98147.97;4990541;28;103957;-64
2022/04/19 11:09:09;;;;;;;4.57;4.18;;;;;;;19.78;32.43;98155.25;4977111;28;103856;-70
2022/04/19 11:11:50;;;;;;;4.63;4.22;;;;;;;18.94;32.37;98156.22;4974570;28;102993;-64
2022/04/19 11:14:45;;;;;;;4.60;4.20;;;;;;;20.26;31.91;98150.44;4999577;28;102681;-70
2022/04/19 11:17:28;;;;;;;5.07;4.60;;;;;;;19.04;33.21;98151.44;4998567;28;103314;-64
2022/04/19 11:20:09;;;;;;;5.55;5.05;;;;;;;20.59;31.98;98136.44;5000500;28;103027;-64
2022/04/19 11:22:48;;;;;;;5.43;4.15;;;;;;;20.67;31.01;98143.56;4999199;28;102665;-64
2022/04/19 11:25:35;;;;;;;5.35;4.85;;;;;;;21.32;31.25;98140.81;4999195;28;102682;-64
2022/04/19 11:28:32;;;;;;;5.20;4.70;;;;;;;20.25;32.46;98146.94;4998836;28;103237;-64
2022/04/19 11:31:10;;;;;;;5.50;5.00;;;;;;;20.18;32.55;98141.41;4997716;28;103017;-70
2022/04/19 11:33:39;;;;;;;5.70;4.63;;;;;;;20.83;31.58;98124.53;4982507;28;102678;-69
2022/04/19 11:36:09;;;;;;;5.77;5.20;;;;;;;20.00;32.56;98137.44;5002206;28;103947;-70
2022/04/19 11:38:41;;;;;;;5.13;4.63;;;;;;;20.21;32.94;98124.97;4998891;28;103292;-64
2022/04/19 11:46:54;;;;;;;5.68;5.07;;;;;;;20.36;31.11;98118.78;4935215;28;104003;-64
2022/04/19 11:49:31;;;;;;;5.10;4.60;;;;;;;21.04;29.10;98116.53;4961826;28;104094;-64
2022/04/19 11:52:01;;;;;;;4.90;4.40;;;;;;;21.22;30.20;98125.00;4996118;28;103205;-64
2022/04/19 11:54:31;;;;;;;6.90;5.07;;;;;;;19.37;31.63;98111.06;4995919;28;102610;-64
2022/04/19 11:57:00;;;;;;;4.60;4.20;;;;;;;21.50;30.42;98117.00;4997730;28;103835;-64
2022/04/19 11:59:35;;;;;;;5.30;4.88;;;;;;;20.41;30.75;98119.91;4977414;28;104440;-69
2022/04/19 12:02:14;;;;;;;6.22;4.78;;;;;;;19.96;31.43;98114.69;4968080;28;104171;-70
2022/04/19 12:04:52;;;;;;;5.13;4.38;;;;;;;20.75;30.04;98119.28;4989625;28;102970;-62
2022/04/19 12:07:20;;;;;;;7.47;5.22;;;;;;;19.92;31.53;98124.13;4984256;28;102802;-61
2022/04/19 12:09:50;;;;;;;6.10;5.22;;;;;;;19.16;32.68;98119.75;5003244;28;103243;-60
2022/04/19 12:12:20;;;;;;;28.00;13.63;;;;;;;20.12;31.83;98115.38;5003585;28;103243;-71
2022/04/19 12:14:53;;;;;;;4.27;3.70;;;;;;;20.70;29.78;98113.66;5004875;28;103193;-73
2022/04/19 12:17:25;;;;;;;4.37;3.83;;;;;;;21.38;29.07;98108.66;5000654;28;103219;-73
2022/04/19 12:20:01;;;;;;;5.32;4.82;;;;;;;20.90;29.28;98104.00;5002564;28;104111;-64
2022/04/19 12:22:34;;;;;;;4.47;4.18;;;;;;;20.67;30.58;98106.00;4993589;28;103945;-66
2022/04/19 12:25:04;;;;;;;5.15;4.00;;;;;;;20.51;30.64;98109.72;4999841;28;103019;-65
2022/04/19 12:27:34;;;;;;;4.60;4.20;;;;;;;21.09;28.74;98095.34;4998113;28;104092;-65